sensor_id;sensor_type;location;lat;lon;timestamp;P1;durP1;ratioP1;P2;durP2;ratioP2
31764;SDS011;18338;53.240;8.798;2024-02-23T00:01:07;0.20;;;0.20;;
31764;SDS011;18338;53.240;8.798;2024-02-23T00:03:35;0.73;;;0.20;;
31764;SDS011;18338;53.240;8.798;2024-02-23T00:06:03;0.20;;;0.20;;
31764;SDS011;18338;53.240;8.798;2024-02-23T00:08:30;0.28;;;0.28;;
31764;SDS011;18338;53.240;8.798;2024-02-23T00:10:56;0.20;;;0.20;;
31764;SDS011;18338;53.240;8.798;2024-02-23T00:13:23;0.75;;;0.20;;
31764;SDS011;18338;53.240;8.798;2024-02-23T00:15:50;0.13;;;0.13;;
31764;SDS011;18338;53.240;8.798;2024-02-23T00:18:18;0.30;;;0.30;;
31764;SDS011;18338;53.240;8.798;2024-02-23T00:20:46;0.30;;;0.20;;
31764;SDS011;18338;53.240;8.798;2024-02-23T00:23:13;0.30;;;0.30;;
31764;SDS011;18338;53.240;8.798;2024-02-23T00:25:40;0.28;;;0.20;;
31764;SDS011;18338;53.240;8.798;2024-02-23T00:28:08;0.32;;;0.30;;
31764;SDS011;18338;53.240;8.798;2024-02-23T00:30:35;0.30;;;0.30;;
31764;SDS011;18338;53.240;8.798;2024-02-23T00:33:02;1.05;;;0.30;;
31764;SDS011;18338;53.240;8.798;2024-02-23T00:35:29;0.20;;;0.20;;
31764;SDS011;18338;53.240;8.798;2024-02-23T00:37:56;0.52;;;0.20;;
31764;SDS011;18338;53.240;8.798;2024-02-23T00:40:23;0.55;;;0.20;;
31764;SDS011;18338;53.240;8.798;2024-02-23T00:42:50;0.10;;;0.10;;
31764;SDS011;18338;53.240;8.798;2024-02-23T00:45:16;0.45;;;0.20;;
31764;SDS011;18338;53.240;8.798;2024-02-23T00:47:43;0.43;;;0.10;;
31764;SDS011;18338;53.240;8.798;2024-02-23T00:50:12;0.20;;;0.20;;
31764;SDS011;18338;53.240;8.798;2024-02-23T00:52:39;0.43;;;0.15;;
31764;SDS011;18338;53.240;8.798;2024-02-23T00:55:07;0.03;;;0.03;;
31764;SDS011;18338;53.240;8.798;2024-02-23T00:57:34;0.10;;;0.10;;
31764;SDS011;18338;53.240;8.798;2024-02-23T01:00:02;0.28;;;0.20;;
31764;SDS011;18338;53.240;8.798;2024-02-23T01:02:31;0.10;;;0.10;;
31764;SDS011;18338;53.240;8.798;2024-02-23T01:04:59;0.10;;;0.10;;
31764;SDS011;18338;53.240;8.798;2024-02-23T01:07:26;0.10;;;0.10;;
31764;SDS011;18338;53.240;8.798;2024-02-23T01:09:54;0.20;;;0.20;;
31764;SDS011;18338;53.240;8.798;2024-02-23T01:12:21;0.10;;;0.10;;
31764;SDS011;18338;53.240;8.798;2024-02-23T01:14:48;0.10;;;0.10;;
31764;SDS011;18338;53.240;8.798;2024-02-23T01:17:15;0.20;;;0.20;;
31764;SDS011;18338;53.240;8.798;2024-02-23T01:19:43;0.35;;;0.10;;
31764;SDS011;18338;53.240;8.798;2024-02-23T01:22:10;0.10;;;0.10;;
31764;SDS011;18338;53.240;8.798;2024-02-23T01:24:37;0.10;;;0.10;;
31764;SDS011;18338;53.240;8.798;2024-02-23T01:27:03;0.10;;;0.10;;
31764;SDS011;18338;53.240;8.798;2024-02-23T01:29:30;0.10;;;0.10;;
31764;SDS011;18338;53.240;8.798;2024-02-23T01:31:57;0.10;;;0.10;;
31764;SDS011;18338;53.240;8.798;2024-02-23T01:34:23;0.10;;;0.10;;
31764;SDS011;18338;53.240;8.798;2024-02-23T01:36:50;1.35;;;0.10;;
31764;SDS011;18338;53.240;8.798;2024-02-23T01:39:17;0.10;;;0.10;;
31764;SDS011;18338;53.240;8.798;2024-02-23T01:41:44;0.22;;;0.10;;
31764;SDS011;18338;53.240;8.798;2024-02-23T01:44:10;0.52;;;0.20;;
31764;SDS011;18338;53.240;8.798;2024-02-23T01:46:38;0.73;;;0.10;;
31764;SDS011;18338;53.240;8.798;2024-02-23T01:49:05;0.70;;;0.20;;
31764;SDS011;18338;53.240;8.798;2024-02-23T01:51:34;0.25;;;0.10;;
31764;SDS011;18338;53.240;8.798;2024-02-23T01:54:01;0.10;;;0.10;;
31764;SDS011;18338;53.240;8.798;2024-02-23T01:56:29;0.20;;;0.20;;
31764;SDS011;18338;53.240;8.798;2024-02-23T01:58:57;0.52;;;0.20;;
31764;SDS011;18338;53.240;8.798;2024-02-23T02:01:24;0.73;;;0.20;;
31764;SDS011;18338;53.240;8.798;2024-02-23T02:03:51;0.13;;;0.10;;
31764;SDS011;18338;53.240;8.798;2024-02-23T02:06:18;1.30;;;0.20;;
31764;SDS011;18338;53.240;8.798;2024-02-23T02:08:44;0.32;;;0.20;;
31764;SDS011;18338;53.240;8.798;2024-02-23T02:11:12;0.35;;;0.20;;
31764;SDS011;18338;53.240;8.798;2024-02-23T02:13:39;0.32;;;0.20;;
31764;SDS011;18338;53.240;8.798;2024-02-23T02:16:05;0.60;;;0.20;;
31764;SDS011;18338;53.240;8.798;2024-02-23T02:18:32;1.67;;;0.20;;
31764;SDS011;18338;53.240;8.798;2024-02-23T02:20:59;0.28;;;0.20;;
31764;SDS011;18338;53.240;8.798;2024-02-23T02:23:26;0.65;;;0.22;;
31764;SDS011;18338;53.240;8.798;2024-02-23T02:25:57;0.20;;;0.20;;
31764;SDS011;18338;53.240;8.798;2024-02-23T02:28:25;0.10;;;0.10;;
31764;SDS011;18338;53.240;8.798;2024-02-23T02:30:52;0.38;;;0.10;;
31764;SDS011;18338;53.240;8.798;2024-02-23T02:33:19;0.10;;;0.10;;
31764;SDS011;18338;53.240;8.798;2024-02-23T02:35:46;0.55;;;0.13;;
31764;SDS011;18338;53.240;8.798;2024-02-23T02:38:13;0.15;;;0.10;;
31764;SDS011;18338;53.240;8.798;2024-02-23T02:40:40;0.13;;;0.13;;
31764;SDS011;18338;53.240;8.798;2024-02-23T02:43:07;0.28;;;0.13;;
31764;SDS011;18338;53.240;8.798;2024-02-23T02:45:34;0.70;;;0.22;;
31764;SDS011;18338;53.240;8.798;2024-02-23T02:48:01;0.70;;;0.20;;
31764;SDS011;18338;53.240;8.798;2024-02-23T02:50:29;0.30;;;0.30;;
31764;SDS011;18338;53.240;8.798;2024-02-23T02:52:55;0.20;;;0.20;;
31764;SDS011;18338;53.240;8.798;2024-02-23T02:55:22;0.38;;;0.17;;
31764;SDS011;18338;53.240;8.798;2024-02-23T02:57:49;0.20;;;0.20;;
31764;SDS011;18338;53.240;8.798;2024-02-23T03:00:16;0.10;;;0.10;;
31764;SDS011;18338;53.240;8.798;2024-02-23T03:02:42;0.30;;;0.20;;
31764;SDS011;18338;53.240;8.798;2024-02-23T03:05:09;0.20;;;0.20;;
31764;SDS011;18338;53.240;8.798;2024-02-23T03:07:36;0.20;;;0.20;;
31764;SDS011;18338;53.240;8.798;2024-02-23T03:10:03;0.30;;;0.30;;
31764;SDS011;18338;53.240;8.798;2024-02-23T03:12:30;0.30;;;0.30;;
31764;SDS011;18338;53.240;8.798;2024-02-23T03:14:56;0.30;;;0.30;;
31764;SDS011;18338;53.240;8.798;2024-02-23T03:17:23;0.60;;;0.38;;
31764;SDS011;18338;53.240;8.798;2024-02-23T03:19:50;0.32;;;0.30;;
31764;SDS011;18338;53.240;8.798;2024-02-23T03:22:17;0.30;;;0.30;;
31764;SDS011;18338;53.240;8.798;2024-02-23T03:24:44;0.50;;;0.30;;
31764;SDS011;18338;53.240;8.798;2024-02-23T03:27:10;1.23;;;0.50;;
31764;SDS011;18338;53.240;8.798;2024-02-23T03:29:38;0.55;;;0.40;;
31764;SDS011;18338;53.240;8.798;2024-02-23T03:32:05;2.40;;;0.50;;
31764;SDS011;18338;53.240;8.798;2024-02-23T03:34:32;1.67;;;0.50;;
31764;SDS011;18338;53.240;8.798;2024-02-23T03:36:59;6.03;;;1.17;;
31764;SDS011;18338;53.240;8.798;2024-02-23T03:39:28;1.80;;;0.47;;
31764;SDS011;18338;53.240;8.798;2024-02-23T03:41:55;4.38;;;1.02;;
31764;SDS011;18338;53.240;8.798;2024-02-23T03:44:21;5.20;;;0.90;;
31764;SDS011;18338;53.240;8.798;2024-02-23T03:46:48;2.42;;;0.80;;
31764;SDS011;18338;53.240;8.798;2024-02-23T03:49:15;0.77;;;0.68;;
31764;SDS011;18338;53.240;8.798;2024-02-23T03:51:42;3.70;;;1.25;;
31764;SDS011;18338;53.240;8.798;2024-02-23T03:54:09;2.55;;;1.02;;
31764;SDS011;18338;53.240;8.798;2024-02-23T03:56:39;1.80;;;0.88;;
31764;SDS011;18338;53.240;8.798;2024-02-23T03:59:07;2.88;;;1.23;;
31764;SDS011;18338;53.240;8.798;2024-02-23T04:01:38;3.53;;;1.35;;
31764;SDS011;18338;53.240;8.798;2024-02-23T04:04:05;3.30;;;1.17;;
31764;SDS011;18338;53.240;8.798;2024-02-23T04:06:35;1.40;;;1.20;;
31764;SDS011;18338;53.240;8.798;2024-02-23T04:09:02;2.75;;;1.55;;
31764;SDS011;18338;53.240;8.798;2024-02-23T04:11:32;3.08;;;1.60;;
31764;SDS011;18338;53.240;8.798;2024-02-23T04:13:59;3.97;;;1.63;;
31764;SDS011;18338;53.240;8.798;2024-02-23T04:16:27;2.40;;;1.90;;
31764;SDS011;18338;53.240;8.798;2024-02-23T04:18:54;12.80;;;2.38;;
31764;SDS011;18338;53.240;8.798;2024-02-23T04:21:20;4.13;;;2.03;;
31764;SDS011;18338;53.240;8.798;2024-02-23T04:23:47;3.15;;;2.15;;
31764;SDS011;18338;53.240;8.798;2024-02-23T04:26:14;5.75;;;2.25;;
31764;SDS011;18338;53.240;8.798;2024-02-23T04:28:41;4.65;;;1.52;;
31764;SDS011;18338;53.240;8.798;2024-02-23T04:31:08;3.70;;;2.13;;
31764;SDS011;18338;53.240;8.798;2024-02-23T04:33:36;4.53;;;2.15;;
31764;SDS011;18338;53.240;8.798;2024-02-23T04:36:03;4.05;;;1.63;;
31764;SDS011;18338;53.240;8.798;2024-02-23T04:38:31;3.03;;;1.80;;
31764;SDS011;18338;53.240;8.798;2024-02-23T04:40:58;4.63;;;2.47;;
31764;SDS011;18338;53.240;8.798;2024-02-23T04:43:25;1.45;;;1.30;;
31764;SDS011;18338;53.240;8.798;2024-02-23T04:45:51;3.40;;;1.20;;
31764;SDS011;18338;53.240;8.798;2024-02-23T04:48:19;2.05;;;1.00;;
31764;SDS011;18338;53.240;8.798;2024-02-23T04:50:46;1.95;;;1.15;;
31764;SDS011;18338;53.240;8.798;2024-02-23T04:53:13;2.75;;;1.23;;
31764;SDS011;18338;53.240;8.798;2024-02-23T04:55:40;1.70;;;0.88;;
31764;SDS011;18338;53.240;8.798;2024-02-23T04:58:07;1.27;;;0.63;;
31764;SDS011;18338;53.240;8.798;2024-02-23T05:00:34;4.20;;;0.98;;
31764;SDS011;18338;53.240;8.798;2024-02-23T05:03:01;1.25;;;0.82;;
31764;SDS011;18338;53.240;8.798;2024-02-23T05:05:31;3.00;;;0.90;;
31764;SDS011;18338;53.240;8.798;2024-02-23T05:07:58;0.95;;;0.90;;
31764;SDS011;18338;53.240;8.798;2024-02-23T05:10:25;3.67;;;0.75;;
31764;SDS011;18338;53.240;8.798;2024-02-23T05:12:53;1.73;;;0.70;;
31764;SDS011;18338;53.240;8.798;2024-02-23T05:15:20;2.92;;;0.70;;
31764;SDS011;18338;53.240;8.798;2024-02-23T05:17:47;1.92;;;0.73;;
31764;SDS011;18338;53.240;8.798;2024-02-23T05:20:14;1.75;;;0.50;;
31764;SDS011;18338;53.240;8.798;2024-02-23T05:22:40;2.10;;;0.90;;
31764;SDS011;18338;53.240;8.798;2024-02-23T05:25:07;1.25;;;0.77;;
31764;SDS011;18338;53.240;8.798;2024-02-23T05:27:35;1.02;;;0.70;;
31764;SDS011;18338;53.240;8.798;2024-02-23T05:30:02;1.95;;;0.90;;
31764;SDS011;18338;53.240;8.798;2024-02-23T05:32:29;0.93;;;0.80;;
31764;SDS011;18338;53.240;8.798;2024-02-23T05:34:56;2.78;;;1.10;;
31764;SDS011;18338;53.240;8.798;2024-02-23T05:37:23;3.63;;;1.20;;
31764;SDS011;18338;53.240;8.798;2024-02-23T05:39:50;3.35;;;1.30;;
31764;SDS011;18338;53.240;8.798;2024-02-23T05:42:17;3.97;;;1.50;;
31764;SDS011;18338;53.240;8.798;2024-02-23T05:44:44;3.05;;;1.65;;
31764;SDS011;18338;53.240;8.798;2024-02-23T05:47:11;2.15;;;1.20;;
31764;SDS011;18338;53.240;8.798;2024-02-23T05:49:40;3.70;;;1.13;;
31764;SDS011;18338;53.240;8.798;2024-02-23T05:52:07;2.55;;;1.55;;
31764;SDS011;18338;53.240;8.798;2024-02-23T05:54:34;2.72;;;1.77;;
31764;SDS011;18338;53.240;8.798;2024-02-23T05:57:00;3.28;;;1.30;;
31764;SDS011;18338;53.240;8.798;2024-02-23T05:59:27;4.47;;;2.35;;
31764;SDS011;18338;53.240;8.798;2024-02-23T06:01:54;1.52;;;1.40;;
31764;SDS011;18338;53.240;8.798;2024-02-23T06:04:24;5.15;;;1.73;;
31764;SDS011;18338;53.240;8.798;2024-02-23T06:06:51;5.47;;;1.90;;
31764;SDS011;18338;53.240;8.798;2024-02-23T06:09:18;2.08;;;1.88;;
31764;SDS011;18338;53.240;8.798;2024-02-23T06:11:45;3.15;;;1.70;;
31764;SDS011;18338;53.240;8.798;2024-02-23T06:14:13;4.65;;;1.70;;
31764;SDS011;18338;53.240;8.798;2024-02-23T06:16:40;2.55;;;1.52;;
31764;SDS011;18338;53.240;8.798;2024-02-23T06:19:07;4.57;;;2.25;;
31764;SDS011;18338;53.240;8.798;2024-02-23T06:21:34;2.90;;;1.42;;
31764;SDS011;18338;53.240;8.798;2024-02-23T06:24:01;4.60;;;2.35;;
31764;SDS011;18338;53.240;8.798;2024-02-23T06:26:29;3.38;;;2.28;;
31764;SDS011;18338;53.240;8.798;2024-02-23T06:28:56;2.55;;;1.90;;
31764;SDS011;18338;53.240;8.798;2024-02-23T06:31:25;4.78;;;1.90;;
31764;SDS011;18338;53.240;8.798;2024-02-23T06:33:51;4.78;;;2.00;;
31764;SDS011;18338;53.240;8.798;2024-02-23T06:36:18;4.43;;;1.75;;
31764;SDS011;18338;53.240;8.798;2024-02-23T06:38:45;4.03;;;3.22;;
31764;SDS011;18338;53.240;8.798;2024-02-23T06:41:12;2.88;;;2.03;;
31764;SDS011;18338;53.240;8.798;2024-02-23T06:43:39;3.42;;;2.42;;
31764;SDS011;18338;53.240;8.798;2024-02-23T06:46:06;3.67;;;2.05;;
31764;SDS011;18338;53.240;8.798;2024-02-23T06:48:37;4.95;;;2.30;;
31764;SDS011;18338;53.240;8.798;2024-02-23T06:51:04;4.18;;;2.40;;
31764;SDS011;18338;53.240;8.798;2024-02-23T06:53:31;6.13;;;2.70;;
31764;SDS011;18338;53.240;8.798;2024-02-23T06:55:58;4.25;;;2.35;;
31764;SDS011;18338;53.240;8.798;2024-02-23T06:58:25;7.57;;;2.88;;
31764;SDS011;18338;53.240;8.798;2024-02-23T07:00:52;3.83;;;2.85;;
31764;SDS011;18338;53.240;8.798;2024-02-23T07:03:19;6.78;;;2.80;;
31764;SDS011;18338;53.240;8.798;2024-02-23T07:05:46;5.57;;;3.25;;
31764;SDS011;18338;53.240;8.798;2024-02-23T07:08:14;4.22;;;2.28;;
31764;SDS011;18338;53.240;8.798;2024-02-23T07:10:41;5.63;;;2.60;;
31764;SDS011;18338;53.240;8.798;2024-02-23T07:13:08;4.63;;;2.30;;
31764;SDS011;18338;53.240;8.798;2024-02-23T07:15:35;4.78;;;2.22;;
31764;SDS011;18338;53.240;8.798;2024-02-23T07:18:04;5.47;;;1.95;;
31764;SDS011;18338;53.240;8.798;2024-02-23T07:20:31;3.40;;;1.65;;
31764;SDS011;18338;53.240;8.798;2024-02-23T07:22:58;6.30;;;2.65;;
31764;SDS011;18338;53.240;8.798;2024-02-23T07:25:25;2.47;;;1.38;;
31764;SDS011;18338;53.240;8.798;2024-02-23T07:27:52;4.22;;;1.70;;
31764;SDS011;18338;53.240;8.798;2024-02-23T07:30:19;3.85;;;1.60;;
31764;SDS011;18338;53.240;8.798;2024-02-23T07:32:46;4.43;;;2.25;;
31764;SDS011;18338;53.240;8.798;2024-02-23T07:35:18;2.70;;;1.65;;
31764;SDS011;18338;53.240;8.798;2024-02-23T07:37:45;4.07;;;2.05;;
31764;SDS011;18338;53.240;8.798;2024-02-23T07:40:12;6.38;;;1.65;;
31764;SDS011;18338;53.240;8.798;2024-02-23T07:42:41;4.30;;;1.60;;
31764;SDS011;18338;53.240;8.798;2024-02-23T07:45:08;6.00;;;1.60;;
31764;SDS011;18338;53.240;8.798;2024-02-23T07:47:36;3.60;;;1.30;;
31764;SDS011;18338;53.240;8.798;2024-02-23T07:50:04;4.90;;;1.58;;
31764;SDS011;18338;53.240;8.798;2024-02-23T07:52:31;6.70;;;1.40;;
31764;SDS011;18338;53.240;8.798;2024-02-23T07:54:58;4.85;;;1.58;;
31764;SDS011;18338;53.240;8.798;2024-02-23T07:57:26;3.08;;;1.95;;
31764;SDS011;18338;53.240;8.798;2024-02-23T07:59:53;6.00;;;1.60;;
31764;SDS011;18338;53.240;8.798;2024-02-23T08:02:19;5.32;;;1.50;;
31764;SDS011;18338;53.240;8.798;2024-02-23T08:04:46;3.15;;;1.17;;
31764;SDS011;18338;53.240;8.798;2024-02-23T08:07:14;4.95;;;1.40;;
31764;SDS011;18338;53.240;8.798;2024-02-23T08:09:41;2.78;;;1.35;;
31764;SDS011;18338;53.240;8.798;2024-02-23T08:12:08;2.10;;;1.30;;
31764;SDS011;18338;53.240;8.798;2024-02-23T08:14:35;2.95;;;1.30;;
31764;SDS011;18338;53.240;8.798;2024-02-23T08:17:02;4.00;;;1.42;;
31764;SDS011;18338;53.240;8.798;2024-02-23T08:19:29;2.65;;;1.30;;
31764;SDS011;18338;53.240;8.798;2024-02-23T08:21:56;3.97;;;1.20;;
31764;SDS011;18338;53.240;8.798;2024-02-23T08:24:23;3.35;;;1.20;;
31764;SDS011;18338;53.240;8.798;2024-02-23T08:26:52;2.88;;;1.20;;
31764;SDS011;18338;53.240;8.798;2024-02-23T08:29:20;4.03;;;1.30;;
31764;SDS011;18338;53.240;8.798;2024-02-23T08:31:47;2.60;;;1.40;;
31764;SDS011;18338;53.240;8.798;2024-02-23T08:34:14;3.28;;;1.20;;
31764;SDS011;18338;53.240;8.798;2024-02-23T08:36:43;2.20;;;0.95;;
31764;SDS011;18338;53.240;8.798;2024-02-23T08:39:10;3.60;;;1.50;;
31764;SDS011;18338;53.240;8.798;2024-02-23T08:41:37;2.85;;;1.20;;
31764;SDS011;18338;53.240;8.798;2024-02-23T08:44:05;3.55;;;1.10;;
31764;SDS011;18338;53.240;8.798;2024-02-23T08:46:31;6.03;;;1.13;;
31764;SDS011;18338;53.240;8.798;2024-02-23T08:48:58;3.78;;;1.15;;
31764;SDS011;18338;53.240;8.798;2024-02-23T08:51:25;2.00;;;1.13;;
31764;SDS011;18338;53.240;8.798;2024-02-23T08:53:51;2.72;;;1.33;;
31764;SDS011;18338;53.240;8.798;2024-02-23T08:56:18;2.58;;;0.95;;
31764;SDS011;18338;53.240;8.798;2024-02-23T08:58:45;3.80;;;1.30;;
31764;SDS011;18338;53.240;8.798;2024-02-23T09:01:11;4.32;;;1.10;;
31764;SDS011;18338;53.240;8.798;2024-02-23T09:03:38;2.70;;;1.15;;
31764;SDS011;18338;53.240;8.798;2024-02-23T09:06:05;4.00;;;1.23;;
31764;SDS011;18338;53.240;8.798;2024-02-23T09:08:32;2.08;;;0.65;;
31764;SDS011;18338;53.240;8.798;2024-02-23T09:10:59;5.80;;;1.25;;
31764;SDS011;18338;53.240;8.798;2024-02-23T09:13:26;3.25;;;1.15;;
31764;SDS011;18338;53.240;8.798;2024-02-23T09:15:53;1.58;;;1.05;;
31764;SDS011;18338;53.240;8.798;2024-02-23T09:18:20;1.55;;;0.75;;
31764;SDS011;18338;53.240;8.798;2024-02-23T09:20:48;3.38;;;0.90;;
31764;SDS011;18338;53.240;8.798;2024-02-23T09:23:14;4.38;;;0.82;;
31764;SDS011;18338;53.240;8.798;2024-02-23T09:25:41;1.95;;;0.70;;
31764;SDS011;18338;53.240;8.798;2024-02-23T09:28:09;4.45;;;1.05;;
31764;SDS011;18338;53.240;8.798;2024-02-23T09:30:37;3.78;;;1.33;;
31764;SDS011;18338;53.240;8.798;2024-02-23T09:33:04;2.75;;;0.70;;
31764;SDS011;18338;53.240;8.798;2024-02-23T09:35:32;3.97;;;0.90;;
31764;SDS011;18338;53.240;8.798;2024-02-23T09:37:58;1.98;;;0.73;;
31764;SDS011;18338;53.240;8.798;2024-02-23T09:40:25;2.35;;;0.80;;
31764;SDS011;18338;53.240;8.798;2024-02-23T09:42:56;5.60;;;1.20;;
31764;SDS011;18338;53.240;8.798;2024-02-23T09:45:24;5.03;;;1.00;;
31764;SDS011;18338;53.240;8.798;2024-02-23T09:47:53;2.80;;;0.90;;
31764;SDS011;18338;53.240;8.798;2024-02-23T09:50:22;2.67;;;1.30;;
31764;SDS011;18338;53.240;8.798;2024-02-23T09:52:50;3.88;;;0.82;;
31764;SDS011;18338;53.240;8.798;2024-02-23T09:55:17;3.67;;;1.50;;
31764;SDS011;18338;53.240;8.798;2024-02-23T09:57:45;2.85;;;1.38;;
31764;SDS011;18338;53.240;8.798;2024-02-23T10:00:17;4.40;;;2.25;;
31764;SDS011;18338;53.240;8.798;2024-02-23T10:02:44;3.28;;;1.27;;
31764;SDS011;18338;53.240;8.798;2024-02-23T10:05:11;3.20;;;1.20;;
31764;SDS011;18338;53.240;8.798;2024-02-23T10:07:40;2.13;;;1.20;;
31764;SDS011;18338;53.240;8.798;2024-02-23T10:10:07;2.85;;;1.50;;
31764;SDS011;18338;53.240;8.798;2024-02-23T10:12:35;4.93;;;1.48;;
31764;SDS011;18338;53.240;8.798;2024-02-23T10:15:02;2.75;;;0.98;;
31764;SDS011;18338;53.240;8.798;2024-02-23T10:17:30;2.80;;;1.30;;
31764;SDS011;18338;53.240;8.798;2024-02-23T10:20:01;2.50;;;1.73;;
31764;SDS011;18338;53.240;8.798;2024-02-23T10:22:31;1.85;;;0.88;;
31764;SDS011;18338;53.240;8.798;2024-02-23T10:24:58;3.90;;;2.05;;
31764;SDS011;18338;53.240;8.798;2024-02-23T10:27:26;3.08;;;1.40;;
31764;SDS011;18338;53.240;8.798;2024-02-23T10:29:53;2.58;;;1.02;;
31764;SDS011;18338;53.240;8.798;2024-02-23T10:32:21;4.20;;;1.20;;
31764;SDS011;18338;53.240;8.798;2024-02-23T10:34:48;4.93;;;1.67;;
31764;SDS011;18338;53.240;8.798;2024-02-23T10:37:17;2.20;;;1.50;;
31764;SDS011;18338;53.240;8.798;2024-02-23T10:39:44;3.20;;;1.55;;
31764;SDS011;18338;53.240;8.798;2024-02-23T10:42:13;3.70;;;1.42;;
31764;SDS011;18338;53.240;8.798;2024-02-23T10:44:43;3.45;;;2.45;;
31764;SDS011;18338;53.240;8.798;2024-02-23T10:47:10;2.30;;;0.90;;
31764;SDS011;18338;53.240;8.798;2024-02-23T10:49:38;3.72;;;2.10;;
31764;SDS011;18338;53.240;8.798;2024-02-23T10:52:06;3.20;;;1.13;;
31764;SDS011;18338;53.240;8.798;2024-02-23T10:54:35;3.05;;;2.05;;
31764;SDS011;18338;53.240;8.798;2024-02-23T10:57:02;3.83;;;1.58;;
31764;SDS011;18338;53.240;8.798;2024-02-23T10:59:29;1.27;;;0.85;;
31764;SDS011;18338;53.240;8.798;2024-02-23T11:01:56;3.13;;;1.02;;
31764;SDS011;18338;53.240;8.798;2024-02-23T11:04:26;2.55;;;0.90;;
31764;SDS011;18338;53.240;8.798;2024-02-23T11:06:54;4.60;;;1.20;;
31764;SDS011;18338;53.240;8.798;2024-02-23T11:09:24;1.95;;;1.02;;
31764;SDS011;18338;53.240;8.798;2024-02-23T11:11:52;2.80;;;1.70;;
31764;SDS011;18338;53.240;8.798;2024-02-23T11:14:37;1.98;;;0.98;;
31764;SDS011;18338;53.240;8.798;2024-02-23T11:17:05;2.47;;;0.90;;
31764;SDS011;18338;53.240;8.798;2024-02-23T11:19:39;2.13;;;1.33;;
31764;SDS011;18338;53.240;8.798;2024-02-23T11:22:09;3.65;;;1.15;;
31764;SDS011;18338;53.240;8.798;2024-02-23T11:24:48;4.50;;;1.08;;
31764;SDS011;18338;53.240;8.798;2024-02-23T11:27:20;3.45;;;1.05;;
31764;SDS011;18338;53.240;8.798;2024-02-23T11:29:58;2.60;;;1.20;;
31764;SDS011;18338;53.240;8.798;2024-02-23T11:32:35;2.03;;;1.15;;
31764;SDS011;18338;53.240;8.798;2024-02-23T11:35:09;3.40;;;0.80;;
31764;SDS011;18338;53.240;8.798;2024-02-23T11:37:47;2.60;;;1.45;;
31764;SDS011;18338;53.240;8.798;2024-02-23T11:40:18;3.13;;;1.10;;
31764;SDS011;18338;53.240;8.798;2024-02-23T11:42:45;1.80;;;0.80;;
31764;SDS011;18338;53.240;8.798;2024-02-23T11:45:13;1.88;;;0.63;;
31764;SDS011;18338;53.240;8.798;2024-02-23T11:47:40;5.30;;;2.33;;
31764;SDS011;18338;53.240;8.798;2024-02-23T11:50:10;6.22;;;3.35;;
31764;SDS011;18338;53.240;8.798;2024-02-23T11:52:37;5.75;;;4.03;;
31764;SDS011;18338;53.240;8.798;2024-02-23T11:55:06;2.97;;;1.85;;
31764;SDS011;18338;53.240;8.798;2024-02-23T11:57:34;3.35;;;2.20;;
31764;SDS011;18338;53.240;8.798;2024-02-23T12:00:13;3.00;;;1.10;;
31764;SDS011;18338;53.240;8.798;2024-02-23T12:02:42;2.60;;;1.15;;
31764;SDS011;18338;53.240;8.798;2024-02-23T12:05:10;3.28;;;1.15;;
31764;SDS011;18338;53.240;8.798;2024-02-23T12:07:37;4.32;;;2.55;;
31764;SDS011;18338;53.240;8.798;2024-02-23T12:10:07;3.20;;;1.63;;
31764;SDS011;18338;53.240;8.798;2024-02-23T12:12:34;2.67;;;1.02;;
31764;SDS011;18338;53.240;8.798;2024-02-23T12:15:01;2.75;;;1.65;;
31764;SDS011;18338;53.240;8.798;2024-02-23T12:17:28;10.70;;;6.18;;
31764;SDS011;18338;53.240;8.798;2024-02-23T12:19:59;4.07;;;1.48;;
31764;SDS011;18338;53.240;8.798;2024-02-23T12:22:27;2.95;;;1.65;;
31764;SDS011;18338;53.240;8.798;2024-02-23T12:24:58;3.65;;;1.45;;
31764;SDS011;18338;53.240;8.798;2024-02-23T12:27:26;2.83;;;1.13;;
31764;SDS011;18338;53.240;8.798;2024-02-23T12:29:53;2.20;;;1.00;;
31764;SDS011;18338;53.240;8.798;2024-02-23T12:32:20;3.17;;;1.45;;
31764;SDS011;18338;53.240;8.798;2024-02-23T12:34:48;1.52;;;0.82;;
31764;SDS011;18338;53.240;8.798;2024-02-23T12:37:16;2.90;;;1.00;;
31764;SDS011;18338;53.240;8.798;2024-02-23T12:39:43;2.40;;;0.70;;
31764;SDS011;18338;53.240;8.798;2024-02-23T12:42:11;2.88;;;1.15;;
31764;SDS011;18338;53.240;8.798;2024-02-23T12:44:38;0.80;;;0.80;;
31764;SDS011;18338;53.240;8.798;2024-02-23T12:47:05;1.50;;;0.88;;
31764;SDS011;18338;53.240;8.798;2024-02-23T12:49:32;2.22;;;1.10;;
31764;SDS011;18338;53.240;8.798;2024-02-23T12:51:59;2.05;;;1.02;;
31764;SDS011;18338;53.240;8.798;2024-02-23T12:54:26;2.90;;;1.05;;
31764;SDS011;18338;53.240;8.798;2024-02-23T12:56:53;3.00;;;1.02;;
31764;SDS011;18338;53.240;8.798;2024-02-23T12:59:20;2.78;;;1.00;;
31764;SDS011;18338;53.240;8.798;2024-02-23T13:01:47;1.08;;;0.80;;
31764;SDS011;18338;53.240;8.798;2024-02-23T13:04:18;2.75;;;0.77;;
31764;SDS011;18338;53.240;8.798;2024-02-23T13:06:44;1.63;;;0.70;;
31764;SDS011;18338;53.240;8.798;2024-02-23T13:09:11;1.90;;;0.73;;
31764;SDS011;18338;53.240;8.798;2024-02-23T13:11:40;1.48;;;0.60;;
31764;SDS011;18338;53.240;8.798;2024-02-23T13:14:07;4.00;;;1.00;;
31764;SDS011;18338;53.240;8.798;2024-02-23T13:16:36;2.65;;;0.82;;
31764;SDS011;18338;53.240;8.798;2024-02-23T13:19:02;2.22;;;0.90;;
31764;SDS011;18338;53.240;8.798;2024-02-23T13:21:29;2.30;;;1.08;;
31764;SDS011;18338;53.240;8.798;2024-02-23T13:23:58;1.55;;;0.77;;
31764;SDS011;18338;53.240;8.798;2024-02-23T13:26:25;1.27;;;0.60;;
31764;SDS011;18338;53.240;8.798;2024-02-23T13:28:52;1.50;;;0.90;;
31764;SDS011;18338;53.240;8.798;2024-02-23T13:31:19;1.58;;;0.70;;
31764;SDS011;18338;53.240;8.798;2024-02-23T13:33:46;1.52;;;0.80;;
31764;SDS011;18338;53.240;8.798;2024-02-23T13:36:13;1.95;;;0.90;;
31764;SDS011;18338;53.240;8.798;2024-02-23T13:38:40;1.88;;;0.70;;
31764;SDS011;18338;53.240;8.798;2024-02-23T13:41:08;3.90;;;1.40;;
31764;SDS011;18338;53.240;8.798;2024-02-23T13:43:35;1.85;;;0.93;;
31764;SDS011;18338;53.240;8.798;2024-02-23T13:46:02;4.68;;;0.90;;
31764;SDS011;18338;53.240;8.798;2024-02-23T13:48:30;2.35;;;1.20;;
31764;SDS011;18338;53.240;8.798;2024-02-23T13:50:57;1.92;;;0.93;;
31764;SDS011;18338;53.240;8.798;2024-02-23T13:53:30;2.58;;;1.00;;
31764;SDS011;18338;53.240;8.798;2024-02-23T13:55:57;3.63;;;1.27;;
31764;SDS011;18338;53.240;8.798;2024-02-23T13:58:24;1.55;;;0.95;;
31764;SDS011;18338;53.240;8.798;2024-02-23T14:00:51;2.95;;;1.35;;
31764;SDS011;18338;53.240;8.798;2024-02-23T14:03:18;2.15;;;1.17;;
31764;SDS011;18338;53.240;8.798;2024-02-23T14:05:45;1.80;;;1.00;;
31764;SDS011;18338;53.240;8.798;2024-02-23T14:08:13;3.80;;;1.92;;
31764;SDS011;18338;53.240;8.798;2024-02-23T14:10:40;2.08;;;1.05;;
31764;SDS011;18338;53.240;8.798;2024-02-23T14:13:09;2.33;;;1.00;;
31764;SDS011;18338;53.240;8.798;2024-02-23T14:15:37;1.88;;;0.65;;
31764;SDS011;18338;53.240;8.798;2024-02-23T14:18:04;3.10;;;0.60;;
31764;SDS011;18338;53.240;8.798;2024-02-23T14:20:30;2.60;;;0.80;;
31764;SDS011;18338;53.240;8.798;2024-02-23T14:22:57;1.90;;;0.80;;
31764;SDS011;18338;53.240;8.798;2024-02-23T14:25:24;3.20;;;1.00;;
31764;SDS011;18338;53.240;8.798;2024-02-23T14:27:50;3.15;;;1.88;;
31764;SDS011;18338;53.240;8.798;2024-02-23T14:30:17;4.22;;;1.33;;
31764;SDS011;18338;53.240;8.798;2024-02-23T14:32:44;4.97;;;1.85;;
31764;SDS011;18338;53.240;8.798;2024-02-23T14:35:11;4.45;;;1.40;;
31764;SDS011;18338;53.240;8.798;2024-02-23T14:37:37;2.67;;;1.85;;
31764;SDS011;18338;53.240;8.798;2024-02-23T14:40:04;5.22;;;3.15;;
31764;SDS011;18338;53.240;8.798;2024-02-23T14:42:32;5.55;;;4.20;;
31764;SDS011;18338;53.240;8.798;2024-02-23T14:44:58;2.70;;;2.15;;
31764;SDS011;18338;53.240;8.798;2024-02-23T14:47:25;7.82;;;5.97;;
31764;SDS011;18338;53.240;8.798;2024-02-23T14:50:00;5.95;;;4.00;;